sensor_id;sensor_type;location;lat;lon;timestamp;P1;durP1;ratioP1;P2;durP2;ratioP2
1344;SDS011;15375;48.540;9.268;2023-03-05T00:01:13;36.90;;;17.20;;
1344;SDS011;15375;48.540;9.268;2023-03-05T00:03:40;36.37;;;18.53;;
1344;SDS011;15375;48.540;9.268;2023-03-05T00:06:06;39.20;;;21.20;;
1344;SDS011;15375;48.540;9.268;2023-03-05T00:08:32;36.33;;;20.47;;
1344;SDS011;15375;48.540;9.268;2023-03-05T00:10:58;40.90;;;20.57;;
1344;SDS011;15375;48.540;9.268;2023-03-05T00:13:25;36.43;;;18.90;;
1344;SDS011;15375;48.540;9.268;2023-03-05T00:15:51;37.13;;;20.07;;
1344;SDS011;15375;48.540;9.268;2023-03-05T00:18:16;36.83;;;18.90;;
1344;SDS011;15375;48.540;9.268;2023-03-05T00:20:42;40.03;;;18.83;;
1344;SDS011;15375;48.540;9.268;2023-03-05T00:23:07;42.60;;;19.87;;
1344;SDS011;15375;48.540;9.268;2023-03-05T00:25:36;45.57;;;20.87;;
1344;SDS011;15375;48.540;9.268;2023-03-05T00:28:02;45.00;;;25.50;;
1344;SDS011;15375;48.540;9.268;2023-03-05T00:30:28;37.77;;;22.17;;
1344;SDS011;15375;48.540;9.268;2023-03-05T00:32:53;47.33;;;23.20;;
1344;SDS011;15375;48.540;9.268;2023-03-05T00:35:18;48.77;;;24.77;;
1344;SDS011;15375;48.540;9.268;2023-03-05T00:37:44;39.90;;;21.50;;
1344;SDS011;15375;48.540;9.268;2023-03-05T00:40:09;41.43;;;20.30;;
1344;SDS011;15375;48.540;9.268;2023-03-05T00:42:35;39.67;;;20.70;;
1344;SDS011;15375;48.540;9.268;2023-03-05T00:45:03;50.07;;;23.23;;
1344;SDS011;15375;48.540;9.268;2023-03-05T00:47:29;40.27;;;20.30;;
1344;SDS011;15375;48.540;9.268;2023-03-05T00:49:55;39.30;;;19.80;;
1344;SDS011;15375;48.540;9.268;2023-03-05T00:52:20;41.20;;;20.57;;
1344;SDS011;15375;48.540;9.268;2023-03-05T00:54:45;39.13;;;21.90;;
1344;SDS011;15375;48.540;9.268;2023-03-05T00:57:11;46.23;;;23.27;;
1344;SDS011;15375;48.540;9.268;2023-03-05T00:59:36;48.07;;;21.03;;
1344;SDS011;15375;48.540;9.268;2023-03-05T01:02:01;35.23;;;20.47;;
1344;SDS011;15375;48.540;9.268;2023-03-05T01:04:27;34.13;;;17.20;;
1344;SDS011;15375;48.540;9.268;2023-03-05T01:06:52;41.90;;;20.17;;
1344;SDS011;15375;48.540;9.268;2023-03-05T01:09:18;40.40;;;20.70;;
1344;SDS011;15375;48.540;9.268;2023-03-05T01:11:43;41.37;;;18.97;;
1344;SDS011;15375;48.540;9.268;2023-03-05T01:14:08;39.03;;;20.10;;
1344;SDS011;15375;48.540;9.268;2023-03-05T01:16:34;41.20;;;19.27;;
1344;SDS011;15375;48.540;9.268;2023-03-05T01:18:59;39.17;;;20.73;;
1344;SDS011;15375;48.540;9.268;2023-03-05T01:21:25;37.47;;;18.67;;
1344;SDS011;15375;48.540;9.268;2023-03-05T01:23:50;34.40;;;17.97;;
1344;SDS011;15375;48.540;9.268;2023-03-05T01:26:16;33.60;;;17.03;;
1344;SDS011;15375;48.540;9.268;2023-03-05T01:28:41;36.07;;;19.70;;
1344;SDS011;15375;48.540;9.268;2023-03-05T01:31:07;33.73;;;18.30;;
1344;SDS011;15375;48.540;9.268;2023-03-05T01:33:34;38.23;;;19.60;;
1344;SDS011;15375;48.540;9.268;2023-03-05T01:36:00;36.50;;;19.13;;
1344;SDS011;15375;48.540;9.268;2023-03-05T01:38:25;33.97;;;18.13;;
1344;SDS011;15375;48.540;9.268;2023-03-05T01:40:50;46.13;;;18.80;;
1344;SDS011;15375;48.540;9.268;2023-03-05T01:43:23;39.27;;;19.00;;
1344;SDS011;15375;48.540;9.268;2023-03-05T01:46:16;38.03;;;20.30;;
1344;SDS011;15375;48.540;9.268;2023-03-05T01:48:50;35.90;;;18.73;;
1344;SDS011;15375;48.540;9.268;2023-03-05T01:51:19;40.60;;;20.30;;
1344;SDS011;15375;48.540;9.268;2023-03-05T01:53:49;37.60;;;20.37;;
1344;SDS011;15375;48.540;9.268;2023-03-05T01:56:14;33.90;;;18.10;;
1344;SDS011;15375;48.540;9.268;2023-03-05T01:58:40;50.63;;;23.27;;
1344;SDS011;15375;48.540;9.268;2023-03-05T02:01:06;37.97;;;21.63;;
1344;SDS011;15375;48.540;9.268;2023-03-05T02:03:31;46.23;;;21.87;;
1344;SDS011;15375;48.540;9.268;2023-03-05T02:05:58;36.30;;;20.10;;
1344;SDS011;15375;48.540;9.268;2023-03-05T02:08:23;36.00;;;18.80;;
1344;SDS011;15375;48.540;9.268;2023-03-05T02:10:55;34.50;;;19.37;;
1344;SDS011;15375;48.540;9.268;2023-03-05T02:13:22;43.97;;;20.17;;
1344;SDS011;15375;48.540;9.268;2023-03-05T02:15:49;36.67;;;20.43;;
1344;SDS011;15375;48.540;9.268;2023-03-05T02:18:16;43.07;;;20.90;;
1344;SDS011;15375;48.540;9.268;2023-03-05T02:23:22;40.57;;;21.07;;
1344;SDS011;15375;48.540;9.268;2023-03-05T02:25:53;31.40;;;18.23;;
1344;SDS011;15375;48.540;9.268;2023-03-05T02:28:20;33.93;;;18.20;;
1344;SDS011;15375;48.540;9.268;2023-03-05T02:30:50;39.63;;;18.50;;
1344;SDS011;15375;48.540;9.268;2023-03-05T02:33:15;39.97;;;19.77;;
1344;SDS011;15375;48.540;9.268;2023-03-05T02:35:42;33.87;;;17.27;;
1344;SDS011;15375;48.540;9.268;2023-03-05T02:38:08;37.60;;;20.63;;
1344;SDS011;15375;48.540;9.268;2023-03-05T02:40:37;33.10;;;18.40;;
1344;SDS011;15375;48.540;9.268;2023-03-05T02:43:03;39.97;;;19.60;;
1344;SDS011;15375;48.540;9.268;2023-03-05T02:45:29;38.87;;;18.00;;
1344;SDS011;15375;48.540;9.268;2023-03-05T02:47:54;41.23;;;18.07;;
1344;SDS011;15375;48.540;9.268;2023-03-05T02:50:20;44.03;;;20.37;;
1344;SDS011;15375;48.540;9.268;2023-03-05T02:52:46;44.10;;;22.67;;
1344;SDS011;15375;48.540;9.268;2023-03-05T02:55:11;33.50;;;17.87;;
1344;SDS011;15375;48.540;9.268;2023-03-05T02:57:37;43.63;;;19.93;;
1344;SDS011;15375;48.540;9.268;2023-03-05T03:00:03;36.70;;;18.00;;
1344;SDS011;15375;48.540;9.268;2023-03-05T03:02:29;43.67;;;21.53;;
1344;SDS011;15375;48.540;9.268;2023-03-05T03:04:55;43.10;;;18.17;;
1344;SDS011;15375;48.540;9.268;2023-03-05T03:07:20;41.40;;;19.40;;
1344;SDS011;15375;48.540;9.268;2023-03-05T03:09:46;40.10;;;20.80;;
1344;SDS011;15375;48.540;9.268;2023-03-05T03:12:11;40.33;;;18.97;;
1344;SDS011;15375;48.540;9.268;2023-03-05T03:14:38;44.00;;;20.67;;
1344;SDS011;15375;48.540;9.268;2023-03-05T03:17:09;38.07;;;18.70;;
1344;SDS011;15375;48.540;9.268;2023-03-05T03:19:39;43.73;;;21.17;;
1344;SDS011;15375;48.540;9.268;2023-03-05T03:22:06;38.60;;;18.80;;
1344;SDS011;15375;48.540;9.268;2023-03-05T03:24:33;41.20;;;22.13;;
1344;SDS011;15375;48.540;9.268;2023-03-05T03:26:59;41.60;;;21.63;;
1344;SDS011;15375;48.540;9.268;2023-03-05T03:29:24;39.10;;;20.33;;
1344;SDS011;15375;48.540;9.268;2023-03-05T03:31:50;41.77;;;20.60;;
1344;SDS011;15375;48.540;9.268;2023-03-05T03:34:16;38.33;;;20.87;;
1344;SDS011;15375;48.540;9.268;2023-03-05T03:36:42;43.07;;;21.07;;
1344;SDS011;15375;48.540;9.268;2023-03-05T03:39:08;42.20;;;21.00;;
1344;SDS011;15375;48.540;9.268;2023-03-05T03:41:42;39.53;;;20.00;;
1344;SDS011;15375;48.540;9.268;2023-03-05T03:44:08;35.20;;;18.77;;
1344;SDS011;15375;48.540;9.268;2023-03-05T03:46:35;39.43;;;20.00;;
1344;SDS011;15375;48.540;9.268;2023-03-05T03:49:04;36.70;;;19.77;;
1344;SDS011;15375;48.540;9.268;2023-03-05T03:51:32;35.33;;;20.43;;
1344;SDS011;15375;48.540;9.268;2023-03-05T03:53:58;40.20;;;21.20;;
1344;SDS011;15375;48.540;9.268;2023-03-05T03:56:24;39.37;;;20.87;;
1344;SDS011;15375;48.540;9.268;2023-03-05T03:58:49;42.07;;;21.83;;
1344;SDS011;15375;48.540;9.268;2023-03-05T04:01:16;37.57;;;18.87;;
1344;SDS011;15375;48.540;9.268;2023-03-05T04:03:42;43.40;;;21.50;;
1344;SDS011;15375;48.540;9.268;2023-03-05T04:06:07;43.87;;;19.67;;
1344;SDS011;15375;48.540;9.268;2023-03-05T04:08:33;41.40;;;21.00;;
1344;SDS011;15375;48.540;9.268;2023-03-05T04:10:59;41.77;;;20.97;;
1344;SDS011;15375;48.540;9.268;2023-03-05T04:13:25;50.07;;;20.57;;
1344;SDS011;15375;48.540;9.268;2023-03-05T04:15:51;42.67;;;20.90;;
1344;SDS011;15375;48.540;9.268;2023-03-05T04:18:17;40.57;;;19.67;;
1344;SDS011;15375;48.540;9.268;2023-03-05T04:20:42;41.57;;;19.70;;
1344;SDS011;15375;48.540;9.268;2023-03-05T04:23:08;38.17;;;18.30;;
1344;SDS011;15375;48.540;9.268;2023-03-05T04:25:33;47.53;;;21.23;;
1344;SDS011;15375;48.540;9.268;2023-03-05T04:27:58;45.60;;;21.77;;
1344;SDS011;15375;48.540;9.268;2023-03-05T04:30:24;40.43;;;20.27;;
1344;SDS011;15375;48.540;9.268;2023-03-05T04:32:49;50.77;;;20.80;;
1344;SDS011;15375;48.540;9.268;2023-03-05T04:35:15;38.57;;;21.00;;
1344;SDS011;15375;48.540;9.268;2023-03-05T04:37:40;40.63;;;21.00;;
1344;SDS011;15375;48.540;9.268;2023-03-05T04:40:05;39.33;;;19.50;;
1344;SDS011;15375;48.540;9.268;2023-03-05T04:42:32;37.27;;;21.00;;
1344;SDS011;15375;48.540;9.268;2023-03-05T04:44:57;37.07;;;21.00;;
1344;SDS011;15375;48.540;9.268;2023-03-05T04:47:23;47.13;;;21.73;;
1344;SDS011;15375;48.540;9.268;2023-03-05T04:49:48;42.77;;;23.47;;
1344;SDS011;15375;48.540;9.268;2023-03-05T04:52:13;43.40;;;22.33;;
1344;SDS011;15375;48.540;9.268;2023-03-05T04:54:39;48.17;;;25.10;;
1344;SDS011;15375;48.540;9.268;2023-03-05T04:57:05;42.47;;;21.40;;
1344;SDS011;15375;48.540;9.268;2023-03-05T04:59:30;44.40;;;24.20;;
1344;SDS011;15375;48.540;9.268;2023-03-05T05:01:56;41.73;;;22.63;;
1344;SDS011;15375;48.540;9.268;2023-03-05T05:04:21;50.40;;;25.30;;
1344;SDS011;15375;48.540;9.268;2023-03-05T05:06:47;48.27;;;23.97;;
1344;SDS011;15375;48.540;9.268;2023-03-05T05:09:12;47.23;;;23.30;;
1344;SDS011;15375;48.540;9.268;2023-03-05T05:11:38;43.07;;;23.50;;
1344;SDS011;15375;48.540;9.268;2023-03-05T05:14:04;39.93;;;23.37;;
1344;SDS011;15375;48.540;9.268;2023-03-05T05:16:29;45.37;;;22.27;;
1344;SDS011;15375;48.540;9.268;2023-03-05T05:18:55;45.43;;;21.87;;
1344;SDS011;15375;48.540;9.268;2023-03-05T05:21:20;44.23;;;22.20;;
1344;SDS011;15375;48.540;9.268;2023-03-05T05:23:46;46.30;;;22.30;;
1344;SDS011;15375;48.540;9.268;2023-03-05T05:26:11;39.10;;;22.90;;
1344;SDS011;15375;48.540;9.268;2023-03-05T05:28:41;38.37;;;23.40;;
1344;SDS011;15375;48.540;9.268;2023-03-05T05:31:08;39.87;;;23.27;;
1344;SDS011;15375;48.540;9.268;2023-03-05T05:33:37;47.00;;;23.10;;
1344;SDS011;15375;48.540;9.268;2023-03-05T05:36:03;40.13;;;21.40;;
1344;SDS011;15375;48.540;9.268;2023-03-05T05:38:30;38.37;;;22.90;;
1344;SDS011;15375;48.540;9.268;2023-03-05T05:41:09;35.37;;;21.40;;
1344;SDS011;15375;48.540;9.268;2023-03-05T05:43:38;41.70;;;20.20;;
1344;SDS011;15375;48.540;9.268;2023-03-05T05:46:05;45.00;;;21.53;;
1344;SDS011;15375;48.540;9.268;2023-03-05T05:48:32;45.00;;;20.27;;
1344;SDS011;15375;48.540;9.268;2023-03-05T05:50:59;44.00;;;21.63;;
1344;SDS011;15375;48.540;9.268;2023-03-05T05:53:28;40.00;;;22.60;;
1344;SDS011;15375;48.540;9.268;2023-03-05T05:55:54;39.90;;;20.60;;
1344;SDS011;15375;48.540;9.268;2023-03-05T05:58:19;48.50;;;22.77;;
1344;SDS011;15375;48.540;9.268;2023-03-05T06:00:45;36.00;;;20.73;;
1344;SDS011;15375;48.540;9.268;2023-03-05T06:03:10;49.30;;;21.07;;
1344;SDS011;15375;48.540;9.268;2023-03-05T06:05:35;44.40;;;21.10;;
1344;SDS011;15375;48.540;9.268;2023-03-05T06:08:01;45.23;;;21.37;;
1344;SDS011;15375;48.540;9.268;2023-03-05T06:10:26;40.23;;;21.63;;
1344;SDS011;15375;48.540;9.268;2023-03-05T06:12:52;36.27;;;20.77;;
1344;SDS011;15375;48.540;9.268;2023-03-05T06:15:17;42.53;;;20.50;;
1344;SDS011;15375;48.540;9.268;2023-03-05T06:17:43;43.23;;;22.67;;
1344;SDS011;15375;48.540;9.268;2023-03-05T06:20:10;46.37;;;21.03;;
1344;SDS011;15375;48.540;9.268;2023-03-05T06:22:36;48.97;;;24.27;;
1344;SDS011;15375;48.540;9.268;2023-03-05T06:25:03;40.60;;;20.77;;
1344;SDS011;15375;48.540;9.268;2023-03-05T06:27:29;42.30;;;21.50;;
1344;SDS011;15375;48.540;9.268;2023-03-05T06:29:54;37.50;;;20.63;;
1344;SDS011;15375;48.540;9.268;2023-03-05T06:32:20;46.27;;;21.20;;
1344;SDS011;15375;48.540;9.268;2023-03-05T06:34:46;43.20;;;20.30;;
1344;SDS011;15375;48.540;9.268;2023-03-05T06:37:12;45.90;;;20.93;;
1344;SDS011;15375;48.540;9.268;2023-03-05T06:39:37;45.53;;;19.73;;
1344;SDS011;15375;48.540;9.268;2023-03-05T06:42:03;36.57;;;18.83;;
1344;SDS011;15375;48.540;9.268;2023-03-05T06:44:28;40.43;;;21.23;;
1344;SDS011;15375;48.540;9.268;2023-03-05T06:46:54;33.00;;;18.73;;
1344;SDS011;15375;48.540;9.268;2023-03-05T06:49:19;38.00;;;19.50;;
1344;SDS011;15375;48.540;9.268;2023-03-05T06:51:44;42.07;;;22.57;;
1344;SDS011;15375;48.540;9.268;2023-03-05T06:54:11;36.70;;;20.87;;
1344;SDS011;15375;48.540;9.268;2023-03-05T06:56:39;38.20;;;20.73;;
1344;SDS011;15375;48.540;9.268;2023-03-05T06:59:07;43.77;;;22.37;;
1344;SDS011;15375;48.540;9.268;2023-03-05T07:01:33;56.73;;;26.63;;
1344;SDS011;15375;48.540;9.268;2023-03-05T07:03:59;59.23;;;26.20;;
1344;SDS011;15375;48.540;9.268;2023-03-05T07:06:27;55.17;;;24.80;;
1344;SDS011;15375;48.540;9.268;2023-03-05T07:08:53;60.73;;;27.23;;
1344;SDS011;15375;48.540;9.268;2023-03-05T07:11:20;59.93;;;28.10;;
1344;SDS011;15375;48.540;9.268;2023-03-05T07:13:46;63.73;;;27.80;;
1344;SDS011;15375;48.540;9.268;2023-03-05T07:16:13;54.00;;;26.27;;
1344;SDS011;15375;48.540;9.268;2023-03-05T07:18:49;52.73;;;25.40;;
1344;SDS011;15375;48.540;9.268;2023-03-05T07:21:22;43.77;;;24.40;;
1344;SDS011;15375;48.540;9.268;2023-03-05T07:23:51;44.87;;;23.10;;
1344;SDS011;15375;48.540;9.268;2023-03-05T07:26:17;45.77;;;21.53;;
1344;SDS011;15375;48.540;9.268;2023-03-05T07:28:42;46.40;;;24.47;;
1344;SDS011;15375;48.540;9.268;2023-03-05T07:31:12;42.73;;;23.10;;
1344;SDS011;15375;48.540;9.268;2023-03-05T07:33:40;36.80;;;19.30;;
1344;SDS011;15375;48.540;9.268;2023-03-05T07:36:06;36.50;;;18.83;;
1344;SDS011;15375;48.540;9.268;2023-03-05T07:38:32;44.73;;;21.37;;
1344;SDS011;15375;48.540;9.268;2023-03-05T07:41:04;43.73;;;20.07;;
1344;SDS011;15375;48.540;9.268;2023-03-05T07:43:32;33.37;;;18.53;;
1344;SDS011;15375;48.540;9.268;2023-03-05T07:45:57;40.43;;;17.70;;
1344;SDS011;15375;48.540;9.268;2023-03-05T07:48:24;39.67;;;20.20;;
1344;SDS011;15375;48.540;9.268;2023-03-05T07:50:49;36.63;;;20.03;;
1344;SDS011;15375;48.540;9.268;2023-03-05T07:53:15;44.60;;;21.67;;
1344;SDS011;15375;48.540;9.268;2023-03-05T07:55:41;40.60;;;20.70;;
1344;SDS011;15375;48.540;9.268;2023-03-05T07:58:08;41.23;;;21.03;;
1344;SDS011;15375;48.540;9.268;2023-03-05T08:00:33;37.03;;;19.93;;
1344;SDS011;15375;48.540;9.268;2023-03-05T08:02:59;34.10;;;17.77;;
1344;SDS011;15375;48.540;9.268;2023-03-05T08:05:24;38.30;;;21.27;;
1344;SDS011;15375;48.540;9.268;2023-03-05T08:07:50;36.10;;;19.93;;
1344;SDS011;15375;48.540;9.268;2023-03-05T08:10:15;38.80;;;20.37;;
1344;SDS011;15375;48.540;9.268;2023-03-05T08:12:40;38.27;;;18.00;;
1344;SDS011;15375;48.540;9.268;2023-03-05T08:15:06;41.87;;;22.10;;
1344;SDS011;15375;48.540;9.268;2023-03-05T08:17:32;55.60;;;29.90;;
1344;SDS011;15375;48.540;9.268;2023-03-05T08:19:57;48.30;;;26.53;;
1344;SDS011;15375;48.540;9.268;2023-03-05T08:22:24;44.03;;;24.77;;
1344;SDS011;15375;48.540;9.268;2023-03-05T08:24:50;37.30;;;20.17;;
1344;SDS011;15375;48.540;9.268;2023-03-05T08:27:16;41.20;;;20.43;;
1344;SDS011;15375;48.540;9.268;2023-03-05T08:29:41;35.43;;;18.37;;
1344;SDS011;15375;48.540;9.268;2023-03-05T08:32:07;41.70;;;22.57;;
1344;SDS011;15375;48.540;9.268;2023-03-05T08:34:32;38.13;;;21.03;;
1344;SDS011;15375;48.540;9.268;2023-03-05T08:36:58;35.00;;;22.97;;
1344;SDS011;15375;48.540;9.268;2023-03-05T08:39:23;42.53;;;22.90;;
1344;SDS011;15375;48.540;9.268;2023-03-05T08:41:49;35.10;;;20.63;;
1344;SDS011;15375;48.540;9.268;2023-03-05T08:44:14;28.70;;;15.90;;
1344;SDS011;15375;48.540;9.268;2023-03-05T08:46:39;31.20;;;17.30;;
1344;SDS011;15375;48.540;9.268;2023-03-05T08:49:05;33.53;;;21.07;;
1344;SDS011;15375;48.540;9.268;2023-03-05T08:51:31;29.90;;;21.50;;
1344;SDS011;15375;48.540;9.268;2023-03-05T08:53:58;35.90;;;20.13;;
1344;SDS011;15375;48.540;9.268;2023-03-05T08:56:24;36.17;;;17.50;;
1344;SDS011;15375;48.540;9.268;2023-03-05T08:58:51;32.47;;;16.10;;
1344;SDS011;15375;48.540;9.268;2023-03-05T09:01:17;31.43;;;17.07;;
1344;SDS011;15375;48.540;9.268;2023-03-05T09:03:42;32.30;;;16.17;;
1344;SDS011;15375;48.540;9.268;2023-03-05T09:06:08;30.37;;;15.70;;
1344;SDS011;15375;48.540;9.268;2023-03-05T09:08:36;31.70;;;21.13;;
1344;SDS011;15375;48.540;9.268;2023-03-05T09:11:02;29.43;;;17.10;;
1344;SDS011;15375;48.540;9.268;2023-03-05T09:13:29;47.70;;;24.40;;
1344;SDS011;15375;48.540;9.268;2023-03-05T09:15:59;30.37;;;17.30;;
1344;SDS011;15375;48.540;9.268;2023-03-05T09:18:27;25.53;;;16.17;;
1344;SDS011;15375;48.540;9.268;2023-03-05T09:20:54;27.93;;;14.20;;
1344;SDS011;15375;48.540;9.268;2023-03-05T09:23:20;34.67;;;24.97;;
1344;SDS011;15375;48.540;9.268;2023-03-05T09:25:46;26.60;;;16.30;;
1344;SDS011;15375;48.540;9.268;2023-03-05T09:28:11;28.80;;;17.00;;
1344;SDS011;15375;48.540;9.268;2023-03-05T09:30:37;27.20;;;14.30;;
1344;SDS011;15375;48.540;9.268;2023-03-05T09:33:03;24.93;;;16.13;;
1344;SDS011;15375;48.540;9.268;2023-03-05T09:35:29;25.70;;;18.53;;
1344;SDS011;15375;48.540;9.268;2023-03-05T09:38:00;27.00;;;14.37;;
1344;SDS011;15375;48.540;9.268;2023-03-05T09:40:25;29.20;;;17.20;;
1344;SDS011;15375;48.540;9.268;2023-03-05T09:46:05;26.87;;;14.67;;
1344;SDS011;15375;48.540;9.268;2023-03-05T09:49:04;23.90;;;15.67;;
1344;SDS011;15375;48.540;9.268;2023-03-05T09:51:40;27.20;;;15.40;;
1344;SDS011;15375;48.540;9.268;2023-03-05T09:54:24;26.47;;;14.90;;
1344;SDS011;15375;48.540;9.268;2023-03-05T09:56:59;28.67;;;15.77;;
1344;SDS011;15375;48.540;9.268;2023-03-05T09:59:32;24.70;;;14.30;;
1344;SDS011;15375;48.540;9.268;2023-03-05T10:02:42;20.50;;;12.80;;
1344;SDS011;15375;48.540;9.268;2023-03-05T10:05:43;25.37;;;14.90;;
1344;SDS011;15375;48.540;9.268;2023-03-05T10:08:02;23.60;;;15.47;;
1344;SDS011;15375;48.540;9.268;2023-03-05T10:10:38;24.13;;;16.23;;
1344;SDS011;15375;48.540;9.268;2023-03-05T10:13:18;29.50;;;17.50;;
1344;SDS011;15375;48.540;9.268;2023-03-05T10:16:01;23.00;;;14.50;;
1344;SDS011;15375;48.540;9.268;2023-03-05T10:21:17;21.73;;;14.03;;
1344;SDS011;15375;48.540;9.268;2023-03-05T10:29:40;24.57;;;13.67;;
1344;SDS011;15375;48.540;9.268;2023-03-05T10:32:14;22.40;;;12.73;;
1344;SDS011;15375;48.540;9.268;2023-03-05T10:37:58;27.47;;;15.10;;
1344;SDS011;15375;48.540;9.268;2023-03-05T10:40:35;28.10;;;14.33;;
1344;SDS011;15375;48.540;9.268;2023-03-05T10:46:11;20.53;;;13.07;;
1344;SDS011;15375;48.540;9.268;2023-03-05T10:48:53;18.47;;;12.17;;
1344;SDS011;15375;48.540;9.268;2023-03-05T10:51:32;25.10;;;16.20;;
1344;SDS011;15375;48.540;9.268;2023-03-05T10:54:03;23.10;;;12.83;;
1344;SDS011;15375;48.540;9.268;2023-03-05T10:56:39;21.27;;;13.00;;
1344;SDS011;15375;48.540;9.268;2023-03-05T10:59:05;23.33;;;14.23;;
1344;SDS011;15375;48.540;9.268;2023-03-05T11:01:30;21.50;;;12.67;;
1344;SDS011;15375;48.540;9.268;2023-03-05T11:04:04;17.20;;;11.00;;
1344;SDS011;15375;48.540;9.268;2023-03-05T11:12:02;20.43;;;11.03;;
1344;SDS011;15375;48.540;9.268;2023-03-05T11:14:37;22.83;;;12.80;;
1344;SDS011;15375;48.540;9.268;2023-03-05T11:20:22;21.50;;;12.73;;
1344;SDS011;15375;48.540;9.268;2023-03-05T11:33:53;23.13;;;14.30;;
1344;SDS011;15375;48.540;9.268;2023-03-05T11:36:35;25.80;;;16.37;;
1344;SDS011;15375;48.540;9.268;2023-03-05T11:44:51;18.83;;;11.40;;
1344;SDS011;15375;48.540;9.268;2023-03-05T11:46:53;18.60;;;11.00;;
1344;SDS011;15375;48.540;9.268;2023-03-05T11:49:25;29.93;;;13.10;;
1344;SDS011;15375;48.540;9.268;2023-03-05T11:54:32;20.13;;;13.70;;
1344;SDS011;15375;48.540;9.268;2023-03-05T11:57:07;22.00;;;13.67;;
1344;SDS011;15375;48.540;9.268;2023-03-05T11:59:38;27.97;;;16.80;;
1344;SDS011;15375;48.540;9.268;2023-03-05T12:02:05;26.63;;;15.67;;
1344;SDS011;15375;48.540;9.268;2023-03-05T12:04:42;17.27;;;12.30;;
1344;SDS011;15375;48.540;9.268;2023-03-05T12:07:08;21.37;;;13.03;;
1344;SDS011;15375;48.540;9.268;2023-03-05T12:09:45;32.47;;;22.13;;
1344;SDS011;15375;48.540;9.268;2023-03-05T12:18:25;23.20;;;14.57;;
1344;SDS011;15375;48.540;9.268;2023-03-05T12:20:42;20.23;;;13.00;;
1344;SDS011;15375;48.540;9.268;2023-03-05T12:23:28;18.27;;;12.20;;
1344;SDS011;15375;48.540;9.268;2023-03-05T12:26:16;23.70;;;14.30;;
1344;SDS011;15375;48.540;9.268;2023-03-05T12:37:11;21.40;;;13.10;;
1344;SDS011;15375;48.540;9.268;2023-03-05T12:42:20;18.50;;;12.17;;
1344;SDS011;15375;48.540;9.268;2023-03-05T12:47:39;17.83;;;12.00;;
1344;SDS011;15375;48.540;9.268;2023-03-05T12:52:52;18.07;;;11.30;;
1344;SDS011;15375;48.540;9.268;2023-03-05T12:57:51;22.27;;;12.83;;
1344;SDS011;15375;48.540;9.268;2023-03-05T13:00:26;20.77;;;13.07;;
1344;SDS011;15375;48.540;9.268;2023-03-05T13:02:57;21.17;;;12.20;;
1344;SDS011;15375;48.540;9.268;2023-03-05T13:05:30;19.30;;;13.00;;
1344;SDS011;15375;48.540;9.268;2023-03-05T13:10:41;21.57;;;13.30;;
1344;SDS011;15375;48.540;9.268;2023-03-05T13:13:14;20.80;;;13.23;;
1344;SDS011;15375;48.540;9.268;2023-03-05T13:15:46;23.13;;;13.83;;
1344;SDS011;15375;48.540;9.268;2023-03-05T13:18:17;20.40;;;13.33;;
1344;SDS011;15375;48.540;9.268;2023-03-05T13:21:01;19.30;;;11.97;;
1344;SDS011;15375;48.540;9.268;2023-03-05T13:23:28;22.60;;;14.30;;
1344;SDS011;15375;48.540;9.268;2023-03-05T13:26:01;20.00;;;13.50;;
1344;SDS011;15375;48.540;9.268;2023-03-05T13:28:44;21.27;;;13.83;;
1344;SDS011;15375;48.540;9.268;2023-03-05T13:34:23;22.37;;;11.73;;
1344;SDS011;15375;48.540;9.268;2023-03-05T13:37:01;19.80;;;13.73;;
1344;SDS011;15375;48.540;9.268;2023-03-05T13:39:42;32.00;;;14.10;;
1344;SDS011;15375;48.540;9.268;2023-03-05T13:42:16;27.00;;;13.90;;
1344;SDS011;15375;48.540;9.268;2023-03-05T13:44:57;21.10;;;14.27;;
1344;SDS011;15375;48.540;9.268;2023-03-05T13:47:26;24.33;;;15.20;;
1344;SDS011;15375;48.540;9.268;2023-03-05T13:49:56;21.03;;;14.40;;
1344;SDS011;15375;48.540;9.268;2023-03-05T13:52:34;25.73;;;13.37;;
1344;SDS011;15375;48.540;9.268;2023-03-05T13:55:01;24.40;;;14.20;;
1344;SDS011;15375;48.540;9.268;2023-03-05T13:57:39;22.63;;;13.10;;
1344;SDS011;15375;48.540;9.268;2023-03-05T14:02:59;25.00;;;15.50;;
1344;SDS011;15375;48.540;9.268;2023-03-05T14:05:33;24.03;;;14.43;;
1344;SDS011;15375;48.540;9.268;2023-03-05T14:07:59;25.23;;;15.43;;
1344;SDS011;15375;48.540;9.268;2023-03-05T14:13:19;25.17;;;14.40;;
1344;SDS011;15375;48.540;9.268;2023-03-05T14:16:52;23.73;;;14.90;;
1344;SDS011;15375;48.540;9.268;2023-03-05T14:18:55;25.43;;;16.00;;
1344;SDS011;15375;48.540;9.268;2023-03-05T14:21:23;22.17;;;15.23;;
1344;SDS011;15375;48.540;9.268;2023-03-05T14:23:50;37.03;;;19.53;;
1344;SDS011;15375;48.540;9.268;2023-03-05T14:28:52;25.03;;;16.50;;
1344;SDS011;15375;48.540;9.268;2023-03-05T14:31:29;25.60;;;19.17;;
1344;SDS011;15375;48.540;9.268;2023-03-05T14:34:01;28.23;;;17.30;;
1344;SDS011;15375;48.540;9.268;2023-03-05T14:36:32;24.17;;;18.80;;
1344;SDS011;15375;48.540;9.268;2023-03-05T14:38:58;30.70;;;14.63;;
1344;SDS011;15375;48.540;9.268;2023-03-05T14:41:35;29.50;;;18.10;;
1344;SDS011;15375;48.540;9.268;2023-03-05T14:44:08;34.83;;;18.57;;
1344;SDS011;15375;48.540;9.268;2023-03-05T14:46:39;25.77;;;15.20;;
1344;SDS011;15375;48.540;9.268;2023-03-05T14:49:05;25.77;;;15.10;;
1344;SDS011;15375;48.540;9.268;2023-03-05T14:51:31;26.40;;;15.83;;
1344;SDS011;15375;48.540;9.268;2023-03-05T14:53:59;26.07;;;15.83;;
1344;SDS011;15375;48.540;9.268;2023-03-05T14:56:25;28.53;;;15.57;;
1344;SDS011;15375;48.540;9.268;2023-03-05T14:58:52;23.83;;;15.33;;
1344;SDS011;15375;48.540;9.268;2023-03-05T15:01:18;27.27;;;17.87;;
1344;SDS011;15375;48.540;9.268;2023-03-05T15:03:43;27.53;;;16.13;;
1344;SDS011;15375;48.540;9.268;2023-03-05T15:06:32;39.33;;;29.23;;
1344;SDS011;15375;48.540;9.268;2023-03-05T15:09:01;25.67;;;15.83;;
1344;SDS011;15375;48.540;9.268;2023-03-05T15:11:28;29.77;;;15.80;;
1344;SDS011;15375;48.540;9.268;2023-03-05T15:13:53;35.70;;;22.77;;
1344;SDS011;15375;48.540;9.268;2023-03-05T15:16:19;32.00;;;19.20;;
1344;SDS011;15375;48.540;9.268;2023-03-05T15:18:45;32.33;;;17.00;;
1344;SDS011;15375;48.540;9.268;2023-03-05T15:21:11;38.73;;;25.63;;
1344;SDS011;15375;48.540;9.268;2023-03-05T15:23:37;29.47;;;16.97;;
1344;SDS011;15375;48.540;9.268;2023-03-05T15:26:03;37.73;;;22.07;;
1344;SDS011;15375;48.540;9.268;2023-03-05T15:28:32;25.27;;;15.77;;
1344;SDS011;15375;48.540;9.268;2023-03-05T15:31:00;25.30;;;16.20;;
1344;SDS011;15375;48.540;9.268;2023-03-05T15:33:25;29.90;;;17.70;;
1344;SDS011;15375;48.540;9.268;2023-03-05T15:35:52;30.40;;;19.00;;
1344;SDS011;15375;48.540;9.268;2023-03-05T15:38:17;35.67;;;21.07;;
1344;SDS011;15375;48.540;9.268;2023-03-05T15:40:43;25.60;;;16.40;;
1344;SDS011;15375;48.540;9.268;2023-03-05T15:43:08;26.77;;;15.60;;
1344;SDS011;15375;48.540;9.268;2023-03-05T15:45:34;28.90;;;15.73;;
1344;SDS011;15375;48.540;9.268;2023-03-05T15:47:59;43.70;;;29.13;;
1344;SDS011;15375;48.540;9.268;2023-03-05T15:50:25;33.87;;;19.60;;
1344;SDS011;15375;48.540;9.268;2023-03-05T15:52:53;27.30;;;16.57;;
1344;SDS011;15375;48.540;9.268;2023-03-05T15:55:19;28.63;;;16.53;;
1344;SDS011;15375;48.540;9.268;2023-03-05T15:57:46;29.93;;;19.73;;
1344;SDS011;15375;48.540;9.268;2023-03-05T16:00:13;27.77;;;19.17;;
1344;SDS011;15375;48.540;9.268;2023-03-05T16:02:41;27.07;;;16.47;;
1344;SDS011;15375;48.540;9.268;2023-03-05T16:05:07;33.30;;;17.60;;
1344;SDS011;15375;48.540;9.268;2023-03-05T16:07:36;36.93;;;19.40;;